Time;durP1;ratioP1;P1;durP2;ratioP2;P2;SDS_P1;SDS_P2;PMS_P1;PMS_P2;Temp;Humidity;BMP_temperature;BMP_pressure;BME280_temperature;BME280_humidity;BME280_pressure;Samples;Min_cycle;Max_cycle;Signal;HPM_P1;HPM_P2
2022/12/26 00:01:22;;;;;;;46.55;26.65;;;;;;;8.24;100.00;117539.50;5052690;28;20514;-58
2022/12/26 00:03:48;;;;;;;45.00;26.95;;;;;;;8.24;100.00;117888.78;5064045;28;20512;-58
2022/12/26 00:06:17;;;;;;;44.97;22.25;;;;;;;8.21;100.00;118578.78;5050772;28;20047;-58
2022/12/26 00:08:43;;;;;;;44.67;22.92;;;;;;;8.21;100.00;118927.22;5052629;28;20098;-59
2022/12/26 00:11:08;;;;;;;39.47;22.77;;;;;;;8.23;100.00;118583.66;5051020;28;20075;-58
2022/12/26 00:13:34;;;;;;;51.58;24.80;;;;;;;8.25;100.00;118239.13;5059168;28;20020;-59
2022/12/26 00:15:59;;;;;;;48.22;27.17;;;;;;;8.28;100.00;117894.59;5050701;28;20167;-59
2022/12/26 00:18:24;;;;;;;47.17;25.65;;;;;;;8.28;100.00;117895.56;5052599;28;20607;-59
2022/12/26 00:20:50;;;;;;;41.88;24.88;;;;;;;8.29;100.00;117896.53;5050575;28;20033;-59
2022/12/26 00:23:15;;;;;;;41.22;23.42;;;;;;;8.31;100.00;117552.00;5051868;28;20039;-59
2022/12/26 00:25:40;;;;;;;41.50;23.85;;;;;;;8.32;100.00;116858.19;5051194;28;20025;-59
2022/12/26 00:28:06;;;;;;;44.45;27.55;;;;;;;8.32;100.00;116508.91;5057910;28;20056;-58
2022/12/26 00:30:32;;;;;;;46.58;27.73;;;;;;;8.33;100.00;116162.56;5068037;28;20066;-59
2022/12/26 00:32:57;;;;;;;49.38;29.00;;;;;;;8.33;100.00;115815.28;5052117;28;20078;-59
2022/12/26 00:35:22;;;;;;;52.28;28.52;;;;;;;8.35;100.00;115818.09;5050311;28;20059;-58
2022/12/26 00:37:48;;;;;;;53.45;27.08;;;;;;;8.30;100.00;115809.56;5051866;28;20017;-59
2022/12/26 00:40:13;;;;;;;46.97;26.67;;;;;;;8.29;100.00;115458.53;5051956;28;20100;-59
2022/12/26 00:42:38;;;;;;;47.90;27.02;;;;;;;8.33;100.00;114770.69;5068086;28;20055;-58
2022/12/26 00:45:04;;;;;;;65.60;31.23;;;;;;;8.32;100.00;114420.66;5059575;28;20475;-58
2022/12/26 00:47:29;;;;;;;59.78;29.77;;;;;;;8.29;100.00;114414.13;5050250;28;20412;-59
2022/12/26 00:49:55;;;;;;;55.08;31.40;;;;;;;8.32;100.00;113723.56;5051838;28;20484;-58
2022/12/26 00:52:20;;;;;;;50.45;26.77;;;;;;;8.28;100.00;113716.13;5049513;28;20041;-59
2022/12/26 00:54:45;;;;;;;69.95;31.00;;;;;;;8.22;100.00;113358.84;5051717;28;20035;-59
2022/12/26 00:57:11;;;;;;;57.22;28.90;;;;;;;8.27;100.00;112671.22;5050014;28;20389;-59
2022/12/26 00:59:36;;;;;;;55.55;29.67;;;;;;;8.31;100.00;111634.88;5060867;28;20043;-59
2022/12/26 01:02:36;;;;;;;53.33;29.33;;;;;;;8.32;100.00;110940.06;5069786;28;20510;-59
2022/12/26 01:04:47;;;;;;;62.30;28.45;;;;;;;8.29;100.00;110586.88;5055867;28;20070;-59
2022/12/26 01:07:12;;;;;;;50.47;27.65;;;;;;;8.28;100.00;110237.31;5069593;28;20477;-59
2022/12/26 01:09:37;;;;;;;57.33;29.55;;;;;;;8.30;100.00;109893.19;5071490;28;20020;-59
2022/12/26 01:12:03;;;;;;;61.75;28.85;;;;;;;8.31;100.00;109199.59;5064412;28;20040;-58
2022/12/26 01:14:28;;;;;;;62.55;32.40;;;;;;;8.32;100.00;108853.72;5057935;28;20043;-59
2022/12/26 01:16:54;;;;;;;69.47;30.63;;;;;;;8.30;100.00;108502.56;5050038;28;20056;-59
2022/12/26 01:19:19;;;;;;;65.57;34.75;;;;;;;8.30;100.00;108502.56;5050781;28;20029;-59
2022/12/26 01:21:44;;;;;;;65.72;30.85;;;;;;;8.31;100.00;108156.72;5049560;28;20037;-59
2022/12/26 01:24:10;;;;;;;66.72;33.03;;;;;;;8.36;100.00;107470.44;5051201;28;20020;-58
2022/12/26 01:26:35;;;;;;;65.43;33.47;;;;;;;8.41;100.00;107131.66;5055818;28;20381;-59
2022/12/26 01:29:00;;;;;;;55.05;31.17;;;;;;;8.37;100.00;107472.22;5070697;28;20086;-59
2022/12/26 01:31:26;;;;;;;59.70;33.15;;;;;;;8.37;100.00;107473.06;5059933;28;20041;-59
2022/12/26 01:33:51;;;;;;;62.55;34.55;;;;;;;8.41;100.00;107479.22;5050677;28;20028;-58
2022/12/26 01:36:17;;;;;;;69.07;36.28;;;;;;;8.42;100.00;107828.56;5048926;28;20044;-58
2022/12/26 01:38:43;;;;;;;61.45;34.78;;;;;;;8.34;100.00;108510.53;5053219;28;20033;-58
2022/12/26 01:41:20;;;;;;;58.35;30.17;;;;;;;8.37;100.00;109210.31;5066131;28;20047;-58
2022/12/26 01:44:01;;;;;;;54.10;28.13;;;;;;;8.39;100.00;109214.78;5050850;28;20427;-59
2022/12/26 01:46:43;;;;;;;56.30;32.58;;;;;;;8.42;100.00;109566.97;5049087;28;20048;-59
2022/12/26 01:49:33;;;;;;;62.33;33.60;;;;;;;8.43;100.00;109916.53;5050554;28;20025;-60
2022/12/26 01:52:03;;;;;;;61.38;34.60;;;;;;;8.43;100.00;110264.34;5064880;28;20037;-60
2022/12/26 01:54:34;;;;;;;58.42;31.52;;;;;;;8.42;100.00;110610.38;5070602;28;20028;-60
2022/12/26 01:57:03;;;;;;;54.90;34.45;;;;;;;8.45;100.00;110615.78;5068726;28;20487;-59
2022/12/26 01:59:31;;;;;;;57.63;34.67;;;;;;;8.44;100.00;111309.78;5071089;28;20386;-60
2022/12/26 02:01:58;;;;;;;52.05;31.58;;;;;;;8.45;100.00;111659.50;5059153;28;20056;-60
2022/12/26 02:07:12;;;;;;;59.65;34.30;;;;;;;8.46;100.00;112356.41;5060276;28;20129;-58
2022/12/26 02:09:38;;;;;;;50.45;32.05;;;;;;;8.38;100.00;113038.59;5050682;28;20033;-59
2022/12/26 02:12:13;;;;;;;55.65;33.65;;;;;;;8.37;100.00;113036.78;5067381;28;20040;-59
2022/12/26 02:14:39;;;;;;;60.60;31.48;;;;;;;8.45;100.00;113051.53;5055714;28;20029;-59
2022/12/26 02:17:04;;;;;;;58.13;30.95;;;;;;;8.46;100.00;113053.41;5048683;28;20502;-59
2022/12/26 02:19:54;;;;;;;59.55;31.05;;;;;;;8.41;100.00;113740.31;5050511;28;20526;-59
2022/12/26 02:22:34;;;;;;;52.53;29.77;;;;;;;8.49;100.00;113407.09;5048796;28;20041;-59
2022/12/26 02:25:37;;;;;;;55.83;31.35;;;;;;;8.50;100.00;113757.09;5050139;28;20423;-59
2022/12/26 02:28:40;;;;;;;49.70;30.55;;;;;;;8.53;100.00;114110.84;5028968;28;20038;-59
2022/12/26 02:31:05;;;;;;;60.92;31.13;;;;;;;8.52;100.00;114457.25;5044535;28;20452;-60
2022/12/26 02:33:40;;;;;;;59.13;35.22;;;;;;;8.47;100.00;115144.31;5070402;28;20115;-60
2022/12/26 02:36:35;;;;;;;52.17;33.00;;;;;;;8.54;100.00;115505.81;5068352;28;20032;-60
2022/12/26 02:39:22;;;;;;;53.53;29.55;;;;;;;8.54;100.00;116550.94;5070208;28;20029;-59
2022/12/26 02:42:20;;;;;;;53.88;29.92;;;;;;;8.50;100.00;117587.66;5059846;28;20404;-59
2022/12/26 02:48:00;;;;;;;59.03;33.55;;;;;;;8.50;100.00;118982.81;5039750;28;20055;-59
2022/12/26 03:13:49;;;;;;;56.63;33.83;;;;;;;8.52;100.00;124917.50;5053683;28;20060;-59
2022/12/26 03:19:07;;;;;;;50.58;30.27;;;;;;;8.48;100.00;127703.00;5053034;28;20044;-60
2022/12/26 03:21:42;;;;;;;50.25;31.70;;;;;;;8.44;100.00;129091.00;5052260;28;20744;-59
2022/12/26 03:24:11;;;;;;;51.35;32.03;;;;;;;8.43;100.00;130138.38;5053287;28;20028;-61
2022/12/26 03:26:46;;;;;;;52.88;34.90;;;;;;;8.43;100.00;130837.44;5051641;28;20044;-61
2022/12/26 03:32:08;;;;;;;56.15;33.88;;;;;;;8.42;100.00;131885.19;5062999;28;20058;-61
2022/12/26 03:34:39;;;;;;;42.08;26.73;;;;;;;8.46;100.00;132241.41;5058656;28;20060;-61
2022/12/26 03:37:10;;;;;;;42.42;27.00;;;;;;;8.45;100.00;132938.69;5050239;28;20781;-60
2022/12/26 04:41:34;;;;;;;;;;;;;;;8.39;100.00;160391.97;5010214;28;20040;-60
2022/12/26 04:46:49;;;;;;;38.60;30.60;;;;;;;8.31;100.00;162736.41;5026240;28;20044;-58
2022/12/26 04:52:05;;;;;;;36.58;29.92;;;;;;;8.33;100.00;162741.81;5050023;28;20063;-59
2022/12/26 04:54:31;;;;;;;41.22;32.63;;;;;;;8.37;100.00;162752.63;5051721;28;20032;-58
2022/12/26 04:56:56;;;;;;;43.80;33.08;;;;;;;8.37;100.00;162752.63;5050215;28;20381;-60
2022/12/26 04:59:22;;;;;;;39.65;30.13;;;;;;;8.36;100.00;162749.91;5061406;28;20039;-60
2022/12/26 05:10:05;;;;;;;46.63;35.00;;;;;;;8.38;100.00;162755.25;5051120;28;20040;-58
2022/12/26 05:12:31;;;;;;;49.10;33.45;;;;;;;8.34;100.00;162745.84;5060154;28;20183;-58
2022/12/26 05:14:56;;;;;;;41.45;32.40;;;;;;;8.19;100.00;162706.78;5058884;28;20443;-58
2022/12/26 05:28:41;;;;;;;43.70;34.53;;;;;;;8.18;100.00;162702.75;5068777;28;20112;-60
2022/12/26 05:31:10;;;;;;;49.50;35.13;;;;;;;8.24;100.00;162718.91;5049364;28;20496;-60
2022/12/26 05:36:23;;;;;;;45.65;35.15;;;;;;;8.26;100.00;162724.31;5049506;28;20649;-60
2022/12/26 05:38:48;;;;;;;49.72;37.55;;;;;;;8.24;100.00;162718.91;5051079;28;20112;-60
2022/12/26 05:41:14;;;;;;;49.17;38.08;;;;;;;8.25;100.00;162722.94;5052502;28;20032;-61
2022/12/26 05:43:40;;;;;;;52.38;38.95;;;;;;;8.24;100.00;162720.25;5070875;28;20471;-61
2022/12/26 05:46:05;;;;;;;46.63;34.83;;;;;;;8.18;100.00;162704.06;5052230;28;20044;-60
2022/12/26 05:48:31;;;;;;;52.75;36.08;;;;;;;8.12;100.00;162687.91;5050898;28;20028;-61
2022/12/26 05:51:01;;;;;;;44.35;37.67;;;;;;;8.03;100.00;162665.00;5049364;28;20038;-60
2022/12/26 05:53:27;;;;;;;49.63;38.67;;;;;;;7.99;100.00;162652.88;5049525;28;20452;-64
2022/12/26 05:55:52;;;;;;;48.15;37.38;;;;;;;7.94;100.00;162642.06;5049699;28;20047;-60
2022/12/26 05:58:18;;;;;;;50.08;35.83;;;;;;;7.94;100.00;162642.06;5059278;28;20036;-61
2022/12/26 06:00:43;;;;;;;49.78;37.38;;;;;;;7.87;100.00;162623.22;5055923;28;20048;-62
2022/12/26 06:03:08;;;;;;;50.55;36.83;;;;;;;7.85;100.00;162617.84;5050338;28;20051;-61
2022/12/26 06:05:34;;;;;;;53.17;37.53;;;;;;;7.81;100.00;162605.72;5049395;28;20020;-61
2022/12/26 06:07:59;;;;;;;45.63;37.00;;;;;;;7.76;100.00;162594.91;5065971;28;20028;-60
2022/12/26 06:10:25;;;;;;;43.50;35.40;;;;;;;7.73;100.00;162585.47;5068731;28;20020;-59
2022/12/26 06:12:52;;;;;;;42.05;35.55;;;;;;;7.68;100.00;162572.03;5056533;28;20025;-60
2022/12/26 06:15:17;;;;;;;46.38;34.25;;;;;;;7.64;100.00;162562.59;5048508;28;20104;-60
2022/12/26 06:17:43;;;;;;;35.58;29.23;;;;;;;7.58;100.00;162547.75;5048570;28;20547;-60
2022/12/26 06:20:08;;;;;;;40.50;33.30;;;;;;;7.56;100.00;162542.38;5055465;28;20036;-60
2022/12/26 06:22:34;;;;;;;43.38;31.40;;;;;;;7.56;100.00;162542.38;5071508;28;20066;-60
2022/12/26 06:24:59;;;;;;;37.50;31.52;;;;;;;7.46;100.00;162515.44;5061489;28;20391;-60
2022/12/26 06:27:24;;;;;;;37.25;31.73;;;;;;;7.43;100.00;162508.72;5052697;28;20037;-60
2022/12/26 06:29:50;;;;;;;40.65;33.70;;;;;;;7.43;100.00;162507.34;5054011;28;20021;-60
2022/12/26 06:32:15;;;;;;;34.97;28.90;;;;;;;7.41;100.00;162503.31;5035902;28;20107;-59
2022/12/26 06:34:40;;;;;;;37.70;28.40;;;;;;;7.41;100.00;162502.00;5033923;28;20025;-59
2022/12/26 06:37:06;;;;;;;32.63;26.05;;;;;;;7.40;100.00;162499.28;5045225;28;20041;-59
2022/12/26 06:39:31;;;;;;;28.75;25.23;;;;;;;7.36;100.00;162488.50;5055648;28;20033;-59
2022/12/26 06:41:57;;;;;;;28.35;23.88;;;;;;;7.30;100.00;162475.03;5063396;28;20158;-60
2022/12/26 06:44:22;;;;;;;30.15;25.13;;;;;;;7.27;100.00;162466.94;5067350;28;20036;-59
2022/12/26 06:46:47;;;;;;;26.63;21.17;;;;;;;7.28;100.00;162469.63;5061590;28;20033;-60
2022/12/26 06:49:13;;;;;;;26.55;23.75;;;;;;;7.26;100.00;162464.22;5052929;28;20032;-60
2022/12/26 06:51:38;;;;;;;26.77;22.83;;;;;;;7.27;100.00;162466.94;5051834;28;20048;-60
2022/12/26 06:54:04;;;;;;;30.40;22.77;;;;;;;7.28;100.00;162468.31;5052021;28;20028;-61
2022/12/26 06:56:30;;;;;;;24.75;21.73;;;;;;;7.28;100.00;162469.63;5051689;28;20396;-61
2022/12/26 06:59:01;;;;;;;24.92;20.77;;;;;;;7.33;100.00;162480.44;5053441;28;20032;-60
2022/12/26 07:01:30;;;;;;;23.30;19.60;;;;;;;7.31;100.00;162476.38;5050692;28;20112;-60
2022/12/26 07:03:55;;;;;;;23.38;18.67;;;;;;;7.28;100.00;162469.63;5053252;28;20033;-60
2022/12/26 07:06:41;;;;;;;21.83;18.23;;;;;;;7.24;100.00;162458.88;5051893;28;20099;-59
2022/12/26 07:09:13;;;;;;;21.27;17.63;;;;;;;7.23;100.00;162456.19;5051720;28;20044;-59
2022/12/26 07:11:40;;;;;;;22.95;17.17;;;;;;;7.25;100.00;162461.59;5051506;28;20072;-59
2022/12/26 07:14:06;;;;;;;22.73;20.13;;;;;;;7.24;100.00;162458.88;5052913;28;20017;-59
2022/12/26 07:16:36;;;;;;;17.80;15.68;;;;;;;7.23;100.00;162456.19;5050382;28;20052;-59
2022/12/26 07:19:01;;;;;;;18.80;16.52;;;;;;;7.22;100.00;162453.47;5052850;28;20494;-59
2022/12/26 07:21:27;;;;;;;21.75;17.27;;;;;;;7.22;100.00;162453.47;5051511;28;20045;-59
2022/12/26 07:23:53;;;;;;;17.92;16.02;;;;;;;7.29;100.00;162471.00;5051126;28;20017;-59
2022/12/26 07:26:19;;;;;;;18.77;13.60;;;;;;;7.33;100.00;161955.78;5051076;28;20520;-59
2022/12/26 07:28:45;;;;;;;17.83;15.75;;;;;;;7.44;100.00;159978.84;5051674;28;20039;-60
2022/12/26 07:31:17;;;;;;;16.90;14.50;;;;;;;7.54;100.00;157766.28;5049015;28;20594;-58
2022/12/26 07:33:46;;;;;;;15.02;13.40;;;;;;;7.62;100.00;155909.81;5052870;28;20104;-58
2022/12/26 07:36:11;;;;;;;17.52;14.73;;;;;;;7.68;100.00;155662.00;5039058;28;20523;-59
2022/12/26 07:38:37;;;;;;;14.10;12.70;;;;;;;7.74;100.00;156789.09;5050819;28;20040;-58
2022/12/26 07:41:56;;;;;;;17.48;14.00;;;;;;;7.80;100.00;158622.53;5069334;28;20032;-59
2022/12/26 07:43:47;;;;;;;13.43;12.02;;;;;;;7.83;100.00;160728.16;5060602;28;20047;-60
2022/12/26 07:46:13;;;;;;;12.93;11.52;;;;;;;7.90;100.00;162631.31;5051288;28;20041;-59
2022/12/26 07:48:38;;;;;;;15.73;13.95;;;;;;;7.96;100.00;162644.78;5035992;28;20029;-60
2022/12/26 07:51:04;;;;;;;14.85;12.52;;;;;;;8.00;100.00;162655.59;5046937;28;20098;-59
2022/12/26 07:53:29;;;;;;;12.63;11.30;;;;;;;7.98;100.00;162651.50;5032718;28;20399;-59
2022/12/26 07:55:58;;;;;;;12.68;11.38;;;;;;;8.02;100.00;162660.94;5040848;28;20045;-59
2022/12/26 07:58:23;;;;;;;13.23;11.32;;;;;;;8.02;100.00;162662.31;5069317;28;20056;-60
2022/12/26 08:00:48;;;;;;;14.30;12.82;;;;;;;8.09;100.00;162679.81;5041989;28;20041;-60
2022/12/26 08:03:14;;;;;;;14.50;11.50;;;;;;;8.08;100.00;162678.47;5044681;28;20081;-59
2022/12/26 08:05:43;;;;;;;12.20;11.02;;;;;;;8.13;100.00;162690.63;5050276;28;20074;-59
2022/12/26 08:08:08;;;;;;;;;;;;;;;8.16;100.00;162697.34;5051531;28;20028;-59
2022/12/26 08:10:33;;;;;;;19.37;10.23;;;;;;;8.16;100.00;162698.66;5052700;28;19916;-59
2022/12/26 08:12:58;;;;;;;15.32;10.15;;;;;;;8.18;100.00;162704.06;5062403;28;20447;-59
2022/12/26 08:15:24;;;;;;;13.57;12.18;;;;;;;8.13;100.00;162690.63;5054096;28;20074;-56
2022/12/26 08:17:49;;;;;;;12.30;11.18;;;;;;;8.11;100.00;162685.19;5061093;28;20020;-59
2022/12/26 08:20:14;;;;;;;12.05;10.88;;;;;;;8.03;100.00;162663.63;5059004;28;20388;-59
2022/12/26 08:22:40;;;;;;;14.27;12.93;;;;;;;7.98;100.00;162650.19;5048772;28;20045;-59
2022/12/26 08:25:05;;;;;;;12.32;10.80;;;;;;;8.02;100.00;162660.94;5051669;28;20032;-59
2022/12/26 08:27:31;;;;;;;11.73;10.60;;;;;;;8.01;100.00;162658.22;5051117;28;20534;-59
2022/12/26 08:29:56;;;;;;;14.68;10.43;;;;;;;8.00;100.00;162655.59;5059727;28;20033;-60
2022/12/26 08:32:22;;;;;;;16.27;11.70;;;;;;;8.04;100.00;162666.34;5056673;28;20041;-60
2022/12/26 08:34:47;;;;;;;11.60;10.02;;;;;;;8.08;100.00;162677.09;5067412;28;20061;-59
2022/12/26 08:37:13;;;;;;;17.42;11.70;;;;;;;8.14;100.00;162693.31;5064667;28;20041;-59
2022/12/26 08:39:38;;;;;;;13.10;10.15;;;;;;;8.16;100.00;162697.34;5052748;28;20025;-60
2022/12/26 08:42:03;;;;;;;12.65;10.05;;;;;;;8.21;100.00;162712.19;5050050;28;20048;-60
2022/12/26 08:44:29;;;;;;;16.55;10.43;;;;;;;8.24;100.00;162720.25;5050173;28;20384;-59
2022/12/26 08:46:54;;;;;;;12.15;9.40;;;;;;;8.32;100.00;162740.47;5049689;28;20037;-60
2022/12/26 08:49:19;;;;;;;12.75;10.57;;;;;;;8.36;100.00;162751.25;5066973;28;20040;-59
2022/12/26 08:51:45;;;;;;;17.95;12.60;;;;;;;8.36;100.00;162751.25;5053030;28;20040;-59
2022/12/26 08:54:10;;;;;;;12.85;8.77;;;;;;;8.36;100.00;162749.91;5059803;28;20024;-59
2022/12/26 08:56:35;;;;;;;11.90;9.50;;;;;;;8.39;100.00;162759.34;5050847;28;20047;-59
2022/12/26 08:59:01;;;;;;;10.80;8.48;;;;;;;8.49;100.00;162785.00;5062637;28;20396;-60
2022/12/26 09:01:29;;;;;;;11.68;9.18;;;;;;;8.84;100.00;162875.34;5049735;28;20095;-59
2022/12/26 09:03:56;;;;;;;14.20;10.20;;;;;;;9.09;100.00;162941.41;5051039;28;20025;-60
2022/12/26 09:06:22;;;;;;;8.15;7.35;;;;;;;8.92;100.00;162895.53;5048064;28;20047;-60
2022/12/26 09:08:48;;;;;;;12.45;6.63;;;;;;;8.78;100.00;162860.50;5051147;28;20491;-59
2022/12/26 09:11:27;;;;;;;8.43;7.70;;;;;;;8.73;100.00;162848.34;5049185;28;20041;-60
2022/12/26 09:13:54;;;;;;;10.65;7.53;;;;;;;8.73;100.00;162847.03;5049987;28;20530;-59
2022/12/26 09:16:22;;;;;;;7.97;7.32;;;;;;;8.86;100.00;162882.06;5052680;28;20041;-59
2022/12/26 09:18:51;;;;;;;10.75;7.53;;;;;;;9.19;100.00;162968.38;5062137;28;20028;-60
2022/12/26 09:21:16;;;;;;;8.27;7.13;;;;;;;9.57;100.00;163065.50;5049988;28;20044;-60
2022/12/26 09:23:42;;;;;;;6.75;6.03;;;;;;;9.65;100.00;163087.03;5068407;28;20131;-59
2022/12/26 09:26:16;;;;;;;12.68;5.95;;;;;;;9.46;100.00;163038.50;5062550;28;20047;-59
2022/12/26 09:28:42;;;;;;;8.38;7.38;;;;;;;9.31;100.00;162999.38;5050019;28;20028;-59
2022/12/26 09:31:13;;;;;;;15.18;8.05;;;;;;;9.24;100.00;162980.47;5043249;28;20072;-59
2022/12/26 09:33:38;;;;;;;11.38;7.53;;;;;;;9.13;100.00;162952.16;5030805;28;20068;-59
2022/12/26 09:36:06;;;;;;;21.88;5.97;;;;;;;9.10;100.00;162944.09;5034074;28;20052;-59
2022/12/26 09:38:33;;;;;;;6.33;5.87;;;;;;;9.02;100.00;162922.53;5050585;28;20029;-59
2022/12/26 09:41:18;;;;;;;12.77;5.40;;;;;;;8.97;100.00;162910.38;5048701;28;20052;-59
2022/12/26 09:43:58;;;;;;;7.90;7.10;;;;;;;9.01;100.00;162919.81;5050151;28;20025;-59
2022/12/26 09:46:41;;;;;;;7.18;6.47;;;;;;;8.95;100.00;162904.97;5049159;28;20029;-59
2022/12/26 09:49:17;;;;;;;8.07;6.15;;;;;;;8.89;100.00;162890.19;5050225;28;20025;-59
2022/12/26 09:51:47;;;;;;;14.20;6.07;;;;;;;8.88;100.00;162887.47;5048651;28;20048;-59
2022/12/26 09:54:20;;;;;;;7.38;5.38;;;;;;;8.94;100.00;162900.94;5049852;28;20028;-59
2022/12/26 09:56:46;;;;;;;6.95;6.03;;;;;;;8.94;100.00;162900.94;5048546;28;20041;-59
2022/12/26 09:59:23;;;;;;;9.98;5.45;;;;;;;9.01;100.00;162919.81;5049752;28;20059;-59
2022/12/26 10:01:48;;;;;;;6.30;4.47;;;;;;;9.00;100.00;162917.13;5048888;28;20122;-59
2022/12/26 10:04:19;;;;;;;7.60;5.15;;;;;;;9.05;100.00;162930.59;5049660;28;20045;-59
2022/12/26 10:06:51;;;;;;;11.98;6.35;;;;;;;9.08;100.00;162938.69;5048767;28;20432;-59
2022/12/26 10:09:33;;;;;;;7.75;5.40;;;;;;;9.12;100.00;162949.47;5049756;28;20020;-59
2022/12/26 10:12:28;;;;;;;4.97;4.57;;;;;;;9.15;100.00;162957.56;5048392;28;20045;-59
2022/12/26 10:15:30;;;;;;;8.20;4.97;;;;;;;9.18;100.00;162965.69;5050138;28;20051;-59
2022/12/26 10:18:27;;;;;;;9.90;5.28;;;;;;;9.23;100.00;162976.44;5044146;28;20523;-59
2022/12/26 10:21:01;;;;;;;14.27;5.47;;;;;;;9.25;100.00;162981.84;5048365;28;20423;-59
2022/12/26 10:23:32;;;;;;;6.00;3.72;;;;;;;9.15;100.00;162957.56;5050139;28;20031;-59
2022/12/26 10:26:11;;;;;;;9.38;5.40;;;;;;;9.08;100.00;162938.69;5048308;28;20187;-59
2022/12/26 10:29:03;;;;;;;12.50;6.57;;;;;;;8.97;100.00;162909.06;5049841;28;20022;-59
2022/12/26 10:31:40;;;;;;;6.22;5.00;;;;;;;8.84;100.00;162875.34;5048554;28;20045;-59
2022/12/26 10:34:33;;;;;;;7.70;5.47;;;;;;;8.73;100.00;162848.34;5049441;28;20073;-59
2022/12/26 10:37:17;;;;;;;7.70;5.72;;;;;;;8.67;100.00;162832.19;5048135;28;20414;-59
2022/12/26 10:39:50;;;;;;;7.90;6.85;;;;;;;8.54;100.00;162798.47;5049906;28;20032;-60
2022/12/26 10:42:41;;;;;;;9.00;6.00;;;;;;;8.48;100.00;162782.28;5048272;28;20125;-59
2022/12/26 10:45:44;;;;;;;7.68;6.28;;;;;;;8.42;100.00;162766.09;5049461;28;20480;-59
2022/12/26 10:48:13;;;;;;;7.85;6.63;;;;;;;8.41;100.00;162763.38;5048256;28;20057;-59
2022/12/26 10:50:43;;;;;;;20.00;7.78;;;;;;;8.38;100.00;162756.66;5048300;28;20043;-59
2022/12/26 10:53:13;;;;;;;10.10;7.10;;;;;;;8.30;100.00;162733.75;5049854;28;20021;-60
2022/12/26 10:55:38;;;;;;;6.32;5.05;;;;;;;8.30;100.00;162733.75;5048302;28;20112;-59
2022/12/26 10:58:30;;;;;;;4.97;3.75;;;;;;;8.11;100.00;162685.19;5049361;28;20032;-59
2022/12/26 11:00:55;;;;;;;4.65;3.40;;;;;;;7.92;100.00;162636.72;5047896;28;20044;-59
2022/12/26 11:03:21;;;;;;;5.80;3.22;;;;;;;7.84;100.00;162615.16;5049075;28;20045;-60
2022/12/26 11:05:52;;;;;;;6.95;3.25;;;;;;;7.86;100.00;162620.50;5049250;28;20037;-59
2022/12/26 11:08:48;;;;;;;9.13;3.75;;;;;;;7.82;100.00;162609.75;5053280;28;20796;-59
2022/12/26 11:11:22;;;;;;;4.60;3.65;;;;;;;7.83;100.00;162612.44;5051584;28;20500;-60
2022/12/26 11:13:53;;;;;;;5.10;3.30;;;;;;;7.86;100.00;162620.50;5053059;28;20021;-59
2022/12/26 11:16:27;;;;;;;9.15;3.80;;;;;;;7.83;100.00;162612.44;5051754;28;20033;-59
2022/12/26 11:18:53;;;;;;;4.13;3.17;;;;;;;7.91;100.00;162632.63;5053346;28;20052;-59
2022/12/26 11:21:25;;;;;;;18.02;5.20;;;;;;;7.92;100.00;162636.72;5051217;28;20037;-59
2022/12/26 11:23:52;;;;;;;6.45;3.58;;;;;;;7.99;100.00;162652.88;5053169;28;20423;-59
2022/12/26 11:26:28;;;;;;;7.25;4.53;;;;;;;8.02;100.00;162660.94;5051492;28;20143;-60
2022/12/26 11:29:16;;;;;;;5.75;3.88;;;;;;;7.93;100.00;162638.03;5052468;28;20548;-59
2022/12/26 11:31:51;;;;;;;13.90;4.28;;;;;;;7.57;100.00;162543.75;5051480;28;20531;-60
2022/12/26 11:34:23;;;;;;;24.15;5.93;;;;;;;7.36;100.00;162488.50;5052054;28;20040;-59
2022/12/26 11:36:50;;;;;;;14.82;4.65;;;;;;;7.08;100.00;162415.78;5051465;28;20033;-59
2022/12/26 11:39:22;;;;;;;10.88;5.00;;;;;;;6.88;100.00;162364.63;5052792;28;20029;-59
2022/12/26 11:41:48;;;;;;;16.02;4.07;;;;;;;6.71;100.00;162320.16;5051218;28;20041;-59
2022/12/26 11:44:13;;;;;;;10.80;5.32;;;;;;;6.62;100.00;162297.28;5052273;28;20032;-59
2022/12/26 11:46:44;;;;;;;14.07;4.22;;;;;;;6.52;100.00;162270.31;5051316;28;20127;-59
2022/12/26 11:49:44;;;;;;;9.98;3.17;;;;;;;6.55;100.00;162278.44;5052236;28;20368;-59
2022/12/26 11:52:31;;;;;;;29.70;6.38;;;;;;;6.55;100.00;162278.44;5049689;28;20114;-59
2022/12/26 11:54:56;;;;;;;13.90;4.88;;;;;;;6.61;100.00;162294.56;5052680;28;20388;-59
2022/12/26 11:57:28;;;;;;;10.10;3.55;;;;;;;6.63;100.00;162299.97;5049785;28;20047;-59
2022/12/26 12:00:10;;;;;;;6.20;2.97;;;;;;;6.63;100.00;162299.97;5052282;28;20033;-60
2022/12/26 12:02:38;;;;;;;10.05;3.90;;;;;;;6.62;100.00;162295.94;5049443;28;20056;-59
2022/12/26 12:05:13;;;;;;;18.05;4.80;;;;;;;6.63;100.00;162299.97;5051903;28;20385;-59
2022/12/26 12:08:04;;;;;;;13.98;3.17;;;;;;;6.70;100.00;162316.13;5051112;28;20610;-59
2022/12/26 12:11:09;;;;;;;16.27;4.50;;;;;;;6.70;100.00;162316.13;5051206;28;20365;-59
2022/12/26 12:14:04;;;;;;;8.02;3.05;;;;;;;6.70;100.00;162317.50;5033802;28;20763;-59
2022/12/26 12:17:00;;;;;;;7.95;3.85;;;;;;;6.77;100.00;162336.34;5050601;28;20491;-59
2022/12/26 12:19:37;;;;;;;11.85;4.07;;;;;;;6.78;100.00;162339.00;5051747;28;20365;-59
2022/12/26 12:22:55;;;;;;;14.32;4.55;;;;;;;6.79;100.00;162340.38;5050652;28;20037;-59
2022/12/26 12:25:50;;;;;;;13.68;4.20;;;;;;;6.86;100.00;162359.22;5011394;28;20103;-59
2022/12/26 12:28:29;;;;;;;8.65;3.20;;;;;;;6.97;100.00;162388.81;5007604;28;20046;-59
2022/12/26 12:31:13;;;;;;;;;;;;;;;6.96;100.00;162386.13;5027149;28;20041;-59
2022/12/26 12:33:38;;;;;;;13.50;4.55;;;;;;;6.87;100.00;162361.91;5042490;28;19913;-59
2022/12/26 12:36:21;;;;;;;10.52;6.25;;;;;;;6.91;100.00;162372.66;5049809;28;20125;-59
2022/12/26 12:38:56;;;;;;;12.50;5.70;;;;;;;6.91;100.00;162371.34;5053723;28;20108;-59
2022/12/26 12:41:35;;;;;;;9.98;2.95;;;;;;;6.93;100.00;162376.69;5048937;28;20871;-59
2022/12/26 12:44:20;;;;;;;8.80;4.28;;;;;;;6.86;100.00;162359.22;5048040;28;20028;-59
2022/12/26 12:47:10;;;;;;;24.27;6.60;;;;;;;6.95;100.00;162383.47;5044709;28;20052;-59
2022/12/26 12:50:01;;;;;;;17.08;6.95;;;;;;;6.98;100.00;162391.53;5063303;28;20036;-60
2022/12/26 12:52:45;;;;;;;25.55;8.93;;;;;;;7.00;100.00;162395.53;5058228;28;20041;-59
2022/12/26 12:55:29;;;;;;;8.82;4.68;;;;;;;6.95;100.00;162383.47;5053495;28;20040;-59
2022/12/26 12:58:15;;;;;;;7.90;3.97;;;;;;;6.89;100.00;162367.28;5029650;28;20072;-59
2022/12/26 13:00:47;;;;;;;24.05;7.68;;;;;;;6.85;100.00;162356.53;5031347;28;20036;-59
2022/12/26 13:03:32;;;;;;;9.85;6.55;;;;;;;6.80;100.00;162343.06;5053983;28;20107;-59
2022/12/26 13:06:15;;;;;;;5.88;3.40;;;;;;;6.66;100.00;162308.03;5055470;28;20037;-59
2022/12/26 13:08:57;;;;;;;12.20;4.30;;;;;;;6.57;100.00;162282.44;5060172;28;20113;-59
2022/12/26 13:11:44;;;;;;;9.85;4.45;;;;;;;6.43;100.00;162247.47;5049117;28;20048;-59
2022/12/26 13:14:29;;;;;;;3.70;3.13;;;;;;;6.30;100.00;162213.78;5050965;28;20095;-59
2022/12/26 13:17:02;;;;;;;7.65;2.42;;;;;;;6.31;100.00;162215.16;5049423;28;20119;-59
2022/12/26 13:20:06;;;;;;;7.78;2.40;;;;;;;6.25;100.00;162200.34;5050195;28;20087;-59
2022/12/26 13:25:33;;;;;;;8.07;2.90;;;;;;;6.06;100.00;162149.22;5048969;28;20099;-59
2022/12/26 13:28:08;;;;;;;4.20;2.22;;;;;;;6.06;100.00;162149.22;5050274;28;20082;-59
2022/12/26 13:30:34;;;;;;;4.97;2.33;;;;;;;6.03;100.00;162143.84;5049801;28;20037;-59
2022/12/26 13:32:59;;;;;;;4.75;2.55;;;;;;;6.01;100.00;162137.09;5049206;28;20027;-59
2022/12/26 13:35:49;;;;;;;8.05;2.42;;;;;;;5.95;100.00;162120.91;5049506;28;20025;-57
2022/12/26 13:38:15;;;;;;;10.27;2.50;;;;;;;5.88;100.00;162103.41;5050363;28;20037;-59
2022/12/26 13:40:53;;;;;;;7.07;3.58;;;;;;;5.85;100.00;162095.31;5048572;28;20395;-59
2022/12/26 13:46:30;;;;;;;9.05;3.33;;;;;;;5.87;100.00;162100.72;5069000;28;20047;-59